sensor_id;sensor_type;location;lat;lon;timestamp;P1;durP1;ratioP1;P2;durP2;ratioP2
56051;SDS011;41919;42.648;23.384;2023-04-30T00:02:17;9.18;;;5.43;;
56051;SDS011;41919;42.648;23.384;2023-04-30T00:04:43;10.38;;;5.47;;
56051;SDS011;41919;42.648;23.384;2023-04-30T00:07:08;12.43;;;6.03;;
56051;SDS011;41919;42.648;23.384;2023-04-30T00:09:34;11.20;;;5.93;;
56051;SDS011;41919;42.648;23.384;2023-04-30T00:11:59;10.98;;;6.03;;
56051;SDS011;41919;42.648;23.384;2023-04-30T00:14:25;14.27;;;6.25;;
56051;SDS011;41919;42.648;23.384;2023-04-30T00:16:50;9.57;;;5.30;;
56051;SDS011;41919;42.648;23.384;2023-04-30T00:19:15;11.20;;;5.72;;
56051;SDS011;41919;42.648;23.384;2023-04-30T00:21:41;10.57;;;5.90;;
56051;SDS011;41919;42.648;23.384;2023-04-30T00:24:07;14.80;;;6.57;;
56051;SDS011;41919;42.648;23.384;2023-04-30T00:26:32;11.05;;;6.53;;
56051;SDS011;41919;42.648;23.384;2023-04-30T00:28:57;10.82;;;6.13;;
56051;SDS011;41919;42.648;23.384;2023-04-30T00:31:23;10.75;;;6.18;;
56051;SDS011;41919;42.648;23.384;2023-04-30T00:33:48;10.63;;;5.15;;
56051;SDS011;41919;42.648;23.384;2023-04-30T00:36:14;11.85;;;5.90;;
56051;SDS011;41919;42.648;23.384;2023-04-30T00:38:39;10.52;;;5.97;;
56051;SDS011;41919;42.648;23.384;2023-04-30T00:41:04;10.82;;;6.55;;
56051;SDS011;41919;42.648;23.384;2023-04-30T00:43:30;13.88;;;7.28;;
56051;SDS011;41919;42.648;23.384;2023-04-30T00:45:55;10.65;;;5.50;;
56051;SDS011;41919;42.648;23.384;2023-04-30T00:48:23;8.63;;;5.45;;
56051;SDS011;41919;42.648;23.384;2023-04-30T00:50:48;10.65;;;5.40;;
56051;SDS011;41919;42.648;23.384;2023-04-30T00:53:14;11.43;;;5.68;;
56051;SDS011;41919;42.648;23.384;2023-04-30T00:55:40;11.10;;;6.10;;
56051;SDS011;41919;42.648;23.384;2023-04-30T00:58:08;14.93;;;6.32;;
56051;SDS011;41919;42.648;23.384;2023-04-30T01:00:33;14.93;;;6.35;;
56051;SDS011;41919;42.648;23.384;2023-04-30T01:02:59;14.43;;;6.50;;
56051;SDS011;41919;42.648;23.384;2023-04-30T01:05:25;11.23;;;6.40;;
56051;SDS011;41919;42.648;23.384;2023-04-30T01:07:51;7.10;;;4.70;;
56051;SDS011;41919;42.648;23.384;2023-04-30T01:10:17;5.95;;;4.57;;
56051;SDS011;41919;42.648;23.384;2023-04-30T01:13:04;5.78;;;4.05;;
56051;SDS011;41919;42.648;23.384;2023-04-30T01:18:20;6.43;;;3.80;;
56051;SDS011;41919;42.648;23.384;2023-04-30T01:20:52;7.57;;;4.45;;
56051;SDS011;41919;42.648;23.384;2023-04-30T01:28:43;5.70;;;4.20;;
56051;SDS011;41919;42.648;23.384;2023-04-30T01:31:11;6.13;;;4.32;;
56051;SDS011;41919;42.648;23.384;2023-04-30T01:33:37;7.05;;;4.22;;
56051;SDS011;41919;42.648;23.384;2023-04-30T01:38:55;5.40;;;4.00;;
56051;SDS011;41919;42.648;23.384;2023-04-30T01:53:03;4.57;;;3.25;;
56051;SDS011;41919;42.648;23.384;2023-04-30T01:55:39;5.20;;;3.63;;
56051;SDS011;41919;42.648;23.384;2023-04-30T01:58:14;6.38;;;3.72;;
56051;SDS011;41919;42.648;23.384;2023-04-30T02:00:40;4.65;;;3.30;;
56051;SDS011;41919;42.648;23.384;2023-04-30T02:03:06;5.90;;;3.67;;
56051;SDS011;41919;42.648;23.384;2023-04-30T02:05:32;5.43;;;3.90;;
56051;SDS011;41919;42.648;23.384;2023-04-30T02:07:57;6.13;;;3.60;;
56051;SDS011;41919;42.648;23.384;2023-04-30T02:10:23;6.28;;;3.70;;
56051;SDS011;41919;42.648;23.384;2023-04-30T02:12:50;4.78;;;3.63;;
56051;SDS011;41919;42.648;23.384;2023-04-30T02:15:16;5.82;;;3.42;;
56051;SDS011;41919;42.648;23.384;2023-04-30T02:17:42;7.13;;;3.45;;
56051;SDS011;41919;42.648;23.384;2023-04-30T02:20:07;4.88;;;3.00;;
56051;SDS011;41919;42.648;23.384;2023-04-30T02:22:34;4.68;;;3.20;;
56051;SDS011;41919;42.648;23.384;2023-04-30T02:25:00;5.45;;;3.22;;
56051;SDS011;41919;42.648;23.384;2023-04-30T02:27:25;5.63;;;3.35;;
56051;SDS011;41919;42.648;23.384;2023-04-30T02:29:51;5.35;;;3.28;;
56051;SDS011;41919;42.648;23.384;2023-04-30T02:32:17;5.32;;;3.30;;
56051;SDS011;41919;42.648;23.384;2023-04-30T02:34:43;6.00;;;3.85;;
56051;SDS011;41919;42.648;23.384;2023-04-30T02:37:09;6.78;;;3.33;;
56051;SDS011;41919;42.648;23.384;2023-04-30T02:39:35;6.55;;;3.67;;
56051;SDS011;41919;42.648;23.384;2023-04-30T02:42:00;5.75;;;3.75;;
56051;SDS011;41919;42.648;23.384;2023-04-30T02:44:25;10.40;;;3.92;;
56051;SDS011;41919;42.648;23.384;2023-04-30T02:46:51;6.00;;;3.30;;
56051;SDS011;41919;42.648;23.384;2023-04-30T02:49:16;7.32;;;3.58;;
56051;SDS011;41919;42.648;23.384;2023-04-30T02:51:42;6.80;;;3.92;;
56051;SDS011;41919;42.648;23.384;2023-04-30T02:54:08;8.68;;;3.70;;
56051;SDS011;41919;42.648;23.384;2023-04-30T02:56:33;5.85;;;3.28;;
56051;SDS011;41919;42.648;23.384;2023-04-30T02:58:59;3.78;;;3.35;;
56051;SDS011;41919;42.648;23.384;2023-04-30T03:01:25;4.65;;;2.95;;
56051;SDS011;41919;42.648;23.384;2023-04-30T03:03:50;5.07;;;3.22;;
56051;SDS011;41919;42.648;23.384;2023-04-30T03:06:16;7.15;;;3.47;;
56051;SDS011;41919;42.648;23.384;2023-04-30T03:08:41;4.88;;;3.72;;
56051;SDS011;41919;42.648;23.384;2023-04-30T03:11:07;4.97;;;3.22;;
56051;SDS011;41919;42.648;23.384;2023-04-30T03:13:32;5.53;;;3.05;;
56051;SDS011;41919;42.648;23.384;2023-04-30T03:16:01;6.82;;;3.20;;
56051;SDS011;41919;42.648;23.384;2023-04-30T03:18:28;4.32;;;3.00;;
56051;SDS011;41919;42.648;23.384;2023-04-30T03:20:55;4.80;;;2.90;;
56051;SDS011;41919;42.648;23.384;2023-04-30T03:23:20;7.63;;;3.50;;
56051;SDS011;41919;42.648;23.384;2023-04-30T03:25:46;4.57;;;3.53;;
56051;SDS011;41919;42.648;23.384;2023-04-30T03:28:12;5.75;;;3.42;;
56051;SDS011;41919;42.648;23.384;2023-04-30T03:30:37;7.90;;;4.18;;
56051;SDS011;41919;42.648;23.384;2023-04-30T03:33:03;4.45;;;3.50;;
56051;SDS011;41919;42.648;23.384;2023-04-30T03:35:32;6.78;;;3.83;;
56051;SDS011;41919;42.648;23.384;2023-04-30T03:37:58;5.47;;;3.38;;
56051;SDS011;41919;42.648;23.384;2023-04-30T03:40:24;4.80;;;3.08;;
56051;SDS011;41919;42.648;23.384;2023-04-30T03:42:50;4.85;;;2.75;;
56051;SDS011;41919;42.648;23.384;2023-04-30T03:45:15;4.80;;;3.50;;
56051;SDS011;41919;42.648;23.384;2023-04-30T03:47:41;4.65;;;3.10;;
56051;SDS011;41919;42.648;23.384;2023-04-30T03:50:07;4.53;;;3.15;;
56051;SDS011;41919;42.648;23.384;2023-04-30T03:52:33;5.80;;;3.35;;
56051;SDS011;41919;42.648;23.384;2023-04-30T03:55:00;4.13;;;3.05;;
56051;SDS011;41919;42.648;23.384;2023-04-30T03:57:26;3.85;;;2.90;;
56051;SDS011;41919;42.648;23.384;2023-04-30T03:59:51;7.10;;;3.60;;
56051;SDS011;41919;42.648;23.384;2023-04-30T04:02:17;6.03;;;3.47;;
56051;SDS011;41919;42.648;23.384;2023-04-30T04:04:43;4.90;;;3.03;;
56051;SDS011;41919;42.648;23.384;2023-04-30T04:07:08;8.63;;;3.15;;
56051;SDS011;41919;42.648;23.384;2023-04-30T04:09:35;5.45;;;3.45;;
56051;SDS011;41919;42.648;23.384;2023-04-30T04:12:00;5.00;;;3.17;;
56051;SDS011;41919;42.648;23.384;2023-04-30T04:14:26;5.05;;;3.30;;
56051;SDS011;41919;42.648;23.384;2023-04-30T04:16:52;6.07;;;4.05;;
56051;SDS011;41919;42.648;23.384;2023-04-30T04:19:17;6.22;;;4.00;;
56051;SDS011;41919;42.648;23.384;2023-04-30T04:21:43;6.07;;;3.00;;
56051;SDS011;41919;42.648;23.384;2023-04-30T04:24:08;4.68;;;3.50;;
56051;SDS011;41919;42.648;23.384;2023-04-30T04:26:34;4.90;;;3.42;;
56051;SDS011;41919;42.648;23.384;2023-04-30T04:29:01;4.95;;;3.72;;
56051;SDS011;41919;42.648;23.384;2023-04-30T04:31:28;4.75;;;3.30;;
56051;SDS011;41919;42.648;23.384;2023-04-30T04:33:53;7.78;;;3.28;;
56051;SDS011;41919;42.648;23.384;2023-04-30T04:36:23;6.55;;;3.30;;
56051;SDS011;41919;42.648;23.384;2023-04-30T04:38:51;4.28;;;3.35;;
56051;SDS011;41919;42.648;23.384;2023-04-30T04:41:17;6.68;;;3.70;;
56051;SDS011;41919;42.648;23.384;2023-04-30T04:43:42;5.03;;;3.33;;
56051;SDS011;41919;42.648;23.384;2023-04-30T04:46:08;8.48;;;3.70;;
56051;SDS011;41919;42.648;23.384;2023-04-30T04:48:33;6.40;;;3.70;;
56051;SDS011;41919;42.648;23.384;2023-04-30T04:50:59;6.35;;;4.03;;
56051;SDS011;41919;42.648;23.384;2023-04-30T04:53:24;4.72;;;3.63;;
56051;SDS011;41919;42.648;23.384;2023-04-30T04:55:50;5.80;;;3.40;;
56051;SDS011;41919;42.648;23.384;2023-04-30T04:58:16;7.95;;;3.72;;
56051;SDS011;41919;42.648;23.384;2023-04-30T05:00:41;5.65;;;3.70;;
56051;SDS011;41919;42.648;23.384;2023-04-30T05:03:07;9.02;;;3.78;;
56051;SDS011;41919;42.648;23.384;2023-04-30T05:05:34;6.85;;;4.05;;
56051;SDS011;41919;42.648;23.384;2023-04-30T05:07:59;6.45;;;4.40;;
56051;SDS011;41919;42.648;23.384;2023-04-30T05:10:24;5.53;;;4.50;;
56051;SDS011;41919;42.648;23.384;2023-04-30T05:12:50;6.05;;;4.40;;
56051;SDS011;41919;42.648;23.384;2023-04-30T05:15:15;8.18;;;4.18;;
56051;SDS011;41919;42.648;23.384;2023-04-30T05:17:41;6.40;;;4.20;;
56051;SDS011;41919;42.648;23.384;2023-04-30T05:20:06;5.63;;;3.95;;
56051;SDS011;41919;42.648;23.384;2023-04-30T05:22:32;8.20;;;4.22;;
56051;SDS011;41919;42.648;23.384;2023-04-30T05:24:58;6.60;;;3.63;;
56051;SDS011;41919;42.648;23.384;2023-04-30T05:27:23;5.35;;;3.28;;
56051;SDS011;41919;42.648;23.384;2023-04-30T05:29:49;3.97;;;3.22;;
56051;SDS011;41919;42.648;23.384;2023-04-30T05:32:14;5.07;;;3.20;;
56051;SDS011;41919;42.648;23.384;2023-04-30T05:34:40;5.38;;;3.90;;
56051;SDS011;41919;42.648;23.384;2023-04-30T05:37:05;4.93;;;3.90;;
56051;SDS011;41919;42.648;23.384;2023-04-30T05:39:31;4.93;;;4.18;;
56051;SDS011;41919;42.648;23.384;2023-04-30T05:41:56;12.65;;;4.43;;
56051;SDS011;41919;42.648;23.384;2023-04-30T05:44:21;9.13;;;4.45;;
56051;SDS011;41919;42.648;23.384;2023-04-30T05:46:47;5.68;;;4.20;;
56051;SDS011;41919;42.648;23.384;2023-04-30T05:49:12;7.88;;;4.07;;
56051;SDS011;41919;42.648;23.384;2023-04-30T05:51:38;5.10;;;4.20;;
56051;SDS011;41919;42.648;23.384;2023-04-30T05:54:03;7.78;;;4.70;;
56051;SDS011;41919;42.648;23.384;2023-04-30T05:56:29;8.00;;;4.75;;
56051;SDS011;41919;42.648;23.384;2023-04-30T05:58:54;5.75;;;4.65;;
56051;SDS011;41919;42.648;23.384;2023-04-30T06:01:19;8.13;;;4.50;;
56051;SDS011;41919;42.648;23.384;2023-04-30T06:03:45;7.65;;;4.88;;
56051;SDS011;41919;42.648;23.384;2023-04-30T06:06:11;10.73;;;5.90;;
56051;SDS011;41919;42.648;23.384;2023-04-30T06:08:36;10.32;;;5.90;;
56051;SDS011;41919;42.648;23.384;2023-04-30T06:11:02;12.77;;;5.97;;
56051;SDS011;41919;42.648;23.384;2023-04-30T06:13:30;6.53;;;5.28;;
56051;SDS011;41919;42.648;23.384;2023-04-30T06:15:56;8.25;;;5.40;;
56051;SDS011;41919;42.648;23.384;2023-04-30T06:18:21;12.45;;;7.05;;
56051;SDS011;41919;42.648;23.384;2023-04-30T06:20:47;8.20;;;5.38;;
56051;SDS011;41919;42.648;23.384;2023-04-30T06:23:12;7.20;;;5.30;;
56051;SDS011;41919;42.648;23.384;2023-04-30T06:25:38;8.80;;;5.20;;
56051;SDS011;41919;42.648;23.384;2023-04-30T06:28:03;9.55;;;4.78;;
56051;SDS011;41919;42.648;23.384;2023-04-30T06:30:30;7.80;;;4.80;;
56051;SDS011;41919;42.648;23.384;2023-04-30T06:32:56;9.02;;;4.93;;
56051;SDS011;41919;42.648;23.384;2023-04-30T06:35:21;6.90;;;4.95;;
56051;SDS011;41919;42.648;23.384;2023-04-30T06:37:47;6.15;;;4.82;;
56051;SDS011;41919;42.648;23.384;2023-04-30T06:40:12;8.63;;;4.90;;
56051;SDS011;41919;42.648;23.384;2023-04-30T06:42:38;9.52;;;5.60;;
56051;SDS011;41919;42.648;23.384;2023-04-30T06:45:03;11.13;;;6.22;;
56051;SDS011;41919;42.648;23.384;2023-04-30T06:47:32;10.57;;;6.35;;
56051;SDS011;41919;42.648;23.384;2023-04-30T06:50:02;9.82;;;6.22;;
56051;SDS011;41919;42.648;23.384;2023-04-30T06:52:29;10.32;;;6.40;;
56051;SDS011;41919;42.648;23.384;2023-04-30T06:54:55;9.80;;;6.47;;
56051;SDS011;41919;42.648;23.384;2023-04-30T06:57:20;10.85;;;6.60;;
56051;SDS011;41919;42.648;23.384;2023-04-30T06:59:46;12.95;;;6.43;;
56051;SDS011;41919;42.648;23.384;2023-04-30T07:02:12;10.98;;;6.47;;
56051;SDS011;41919;42.648;23.384;2023-04-30T07:04:37;11.85;;;6.68;;
56051;SDS011;41919;42.648;23.384;2023-04-30T07:07:03;11.40;;;6.85;;
56051;SDS011;41919;42.648;23.384;2023-04-30T07:09:28;10.40;;;6.72;;
56051;SDS011;41919;42.648;23.384;2023-04-30T07:11:54;13.00;;;7.15;;
56051;SDS011;41919;42.648;23.384;2023-04-30T07:14:20;13.30;;;7.50;;
56051;SDS011;41919;42.648;23.384;2023-04-30T07:16:45;11.70;;;7.50;;
56051;SDS011;41919;42.648;23.384;2023-04-30T07:19:13;10.98;;;7.50;;
56051;SDS011;41919;42.648;23.384;2023-04-30T07:21:39;13.45;;;7.63;;
56051;SDS011;41919;42.648;23.384;2023-04-30T07:24:04;17.15;;;7.93;;
56051;SDS011;41919;42.648;23.384;2023-04-30T07:26:30;13.90;;;8.38;;
56051;SDS011;41919;42.648;23.384;2023-04-30T07:28:55;19.35;;;9.88;;
56051;SDS011;41919;42.648;23.384;2023-04-30T07:31:20;14.68;;;8.20;;
56051;SDS011;41919;42.648;23.384;2023-04-30T07:33:46;12.35;;;7.78;;
56051;SDS011;41919;42.648;23.384;2023-04-30T07:36:12;13.77;;;7.68;;
56051;SDS011;41919;42.648;23.384;2023-04-30T07:38:38;14.60;;;7.80;;
56051;SDS011;41919;42.648;23.384;2023-04-30T07:41:03;12.20;;;8.90;;
56051;SDS011;41919;42.648;23.384;2023-04-30T07:43:28;14.20;;;8.32;;
56051;SDS011;41919;42.648;23.384;2023-04-30T07:45:55;12.35;;;8.77;;
56051;SDS011;41919;42.648;23.384;2023-04-30T07:48:20;12.25;;;7.57;;
56051;SDS011;41919;42.648;23.384;2023-04-30T07:50:46;14.23;;;8.00;;
56051;SDS011;41919;42.648;23.384;2023-04-30T07:53:12;15.50;;;8.02;;
56051;SDS011;41919;42.648;23.384;2023-04-30T07:55:38;12.77;;;7.68;;
56051;SDS011;41919;42.648;23.384;2023-04-30T07:58:03;17.65;;;9.55;;
56051;SDS011;41919;42.648;23.384;2023-04-30T08:00:28;13.23;;;7.95;;
56051;SDS011;41919;42.648;23.384;2023-04-30T08:02:55;10.18;;;7.57;;
56051;SDS011;41919;42.648;23.384;2023-04-30T08:05:20;11.75;;;7.25;;
56051;SDS011;41919;42.648;23.384;2023-04-30T08:07:46;13.10;;;7.38;;
56051;SDS011;41919;42.648;23.384;2023-04-30T08:10:11;12.90;;;7.15;;
56051;SDS011;41919;42.648;23.384;2023-04-30T08:12:37;11.13;;;6.60;;
56051;SDS011;41919;42.648;23.384;2023-04-30T08:15:03;11.07;;;6.07;;
56051;SDS011;41919;42.648;23.384;2023-04-30T08:17:30;10.73;;;6.40;;
56051;SDS011;41919;42.648;23.384;2023-04-30T08:19:56;9.55;;;5.75;;
56051;SDS011;41919;42.648;23.384;2023-04-30T08:22:22;7.35;;;5.65;;
56051;SDS011;41919;42.648;23.384;2023-04-30T08:24:48;9.63;;;5.38;;
56051;SDS011;41919;42.648;23.384;2023-04-30T08:27:13;6.57;;;4.82;;
56051;SDS011;41919;42.648;23.384;2023-04-30T08:29:40;8.02;;;4.40;;
56051;SDS011;41919;42.648;23.384;2023-04-30T08:32:05;11.57;;;4.18;;
56051;SDS011;41919;42.648;23.384;2023-04-30T08:34:31;5.68;;;4.47;;
56051;SDS011;41919;42.648;23.384;2023-04-30T08:36:56;5.75;;;3.63;;
56051;SDS011;41919;42.648;23.384;2023-04-30T08:39:22;6.70;;;4.03;;
56051;SDS011;41919;42.648;23.384;2023-04-30T08:41:50;6.70;;;3.95;;
56051;SDS011;41919;42.648;23.384;2023-04-30T08:44:20;6.97;;;4.03;;
56051;SDS011;41919;42.648;23.384;2023-04-30T08:46:48;3.97;;;3.38;;
56051;SDS011;41919;42.648;23.384;2023-04-30T08:49:18;5.20;;;3.97;;
56051;SDS011;41919;42.648;23.384;2023-04-30T08:51:44;5.18;;;3.50;;
56051;SDS011;41919;42.648;23.384;2023-04-30T08:54:11;4.90;;;3.70;;
56051;SDS011;41919;42.648;23.384;2023-04-30T08:56:38;5.35;;;3.58;;
56051;SDS011;41919;42.648;23.384;2023-04-30T08:59:05;12.32;;;9.18;;
56051;SDS011;41919;42.648;23.384;2023-04-30T09:01:32;9.70;;;4.65;;
56051;SDS011;41919;42.648;23.384;2023-04-30T09:03:58;5.45;;;3.78;;
56051;SDS011;41919;42.648;23.384;2023-04-30T09:06:24;4.07;;;3.50;;
56051;SDS011;41919;42.648;23.384;2023-04-30T09:08:51;6.18;;;3.33;;
56051;SDS011;41919;42.648;23.384;2023-04-30T09:14:00;4.75;;;3.38;;
56051;SDS011;41919;42.648;23.384;2023-04-30T09:16:26;5.30;;;3.30;;
56051;SDS011;41919;42.648;23.384;2023-04-30T09:18:57;8.10;;;3.80;;
56051;SDS011;41919;42.648;23.384;2023-04-30T09:21:33;4.90;;;3.40;;
56051;SDS011;41919;42.648;23.384;2023-04-30T09:24:00;3.53;;;3.20;;
56051;SDS011;41919;42.648;23.384;2023-04-30T09:26:35;3.03;;;2.72;;
56051;SDS011;41919;42.648;23.384;2023-04-30T09:29:02;4.07;;;2.72;;
56051;SDS011;41919;42.648;23.384;2023-04-30T09:31:32;3.22;;;2.88;;
56051;SDS011;41919;42.648;23.384;2023-04-30T09:34:00;4.93;;;3.10;;
56051;SDS011;41919;42.648;23.384;2023-04-30T09:36:25;4.07;;;3.22;;
56051;SDS011;41919;42.648;23.384;2023-04-30T09:38:51;5.00;;;4.13;;
56051;SDS011;41919;42.648;23.384;2023-04-30T09:41:24;3.35;;;2.92;;
56051;SDS011;41919;42.648;23.384;2023-04-30T09:43:51;4.00;;;3.33;;
56051;SDS011;41919;42.648;23.384;2023-04-30T09:46:18;5.18;;;3.42;;
56051;SDS011;41919;42.648;23.384;2023-04-30T09:48:45;3.78;;;3.10;;
56051;SDS011;41919;42.648;23.384;2023-04-30T09:51:11;3.08;;;2.60;;
56051;SDS011;41919;42.648;23.384;2023-04-30T09:53:37;4.97;;;3.15;;
56051;SDS011;41919;42.648;23.384;2023-04-30T09:56:06;3.00;;;2.70;;
56051;SDS011;41919;42.648;23.384;2023-04-30T09:58:35;3.65;;;3.20;;
56051;SDS011;41919;42.648;23.384;2023-04-30T10:01:05;3.35;;;3.05;;
56051;SDS011;41919;42.648;23.384;2023-04-30T10:03:35;3.55;;;2.78;;
56051;SDS011;41919;42.648;23.384;2023-04-30T10:06:03;2.85;;;2.60;;
56051;SDS011;41919;42.648;23.384;2023-04-30T10:08:30;4.22;;;2.85;;
56051;SDS011;41919;42.648;23.384;2023-04-30T10:11:03;3.75;;;3.40;;
56051;SDS011;41919;42.648;23.384;2023-04-30T10:13:31;3.83;;;2.90;;
56051;SDS011;41919;42.648;23.384;2023-04-30T10:16:03;3.20;;;2.83;;
56051;SDS011;41919;42.648;23.384;2023-04-30T10:18:38;2.97;;;2.65;;
56051;SDS011;41919;42.648;23.384;2023-04-30T10:21:08;2.35;;;2.00;;
56051;SDS011;41919;42.648;23.384;2023-04-30T10:23:38;2.40;;;2.20;;
56051;SDS011;41919;42.648;23.384;2023-04-30T10:26:07;3.40;;;2.78;;
56051;SDS011;41919;42.648;23.384;2023-04-30T10:28:36;3.10;;;2.85;;
56051;SDS011;41919;42.648;23.384;2023-04-30T10:31:02;3.05;;;2.80;;
56051;SDS011;41919;42.648;23.384;2023-04-30T10:36:06;2.85;;;2.53;;
56051;SDS011;41919;42.648;23.384;2023-04-30T10:38:37;2.53;;;2.33;;
56051;SDS011;41919;42.648;23.384;2023-04-30T10:41:05;2.38;;;2.17;;
56051;SDS011;41919;42.648;23.384;2023-04-30T10:43:32;3.67;;;2.58;;
56051;SDS011;41919;42.648;23.384;2023-04-30T10:46:00;3.50;;;2.97;;
56051;SDS011;41919;42.648;23.384;2023-04-30T10:48:26;5.05;;;3.75;;
56051;SDS011;41919;42.648;23.384;2023-04-30T10:50:55;4.22;;;3.80;;
56051;SDS011;41919;42.648;23.384;2023-04-30T10:53:24;5.43;;;4.25;;
56051;SDS011;41919;42.648;23.384;2023-04-30T10:58:31;4.25;;;3.85;;
56051;SDS011;41919;42.648;23.384;2023-04-30T11:01:15;6.38;;;3.53;;
56051;SDS011;41919;42.648;23.384;2023-04-30T11:03:42;7.43;;;4.57;;
56051;SDS011;41919;42.648;23.384;2023-04-30T11:06:29;6.90;;;4.05;;
56051;SDS011;41919;42.648;23.384;2023-04-30T11:09:19;4.78;;;3.10;;
56051;SDS011;41919;42.648;23.384;2023-04-30T11:12:01;3.05;;;2.85;;
56051;SDS011;41919;42.648;23.384;2023-04-30T11:14:29;3.50;;;3.20;;
56051;SDS011;41919;42.648;23.384;2023-04-30T11:16:56;4.20;;;3.75;;
56051;SDS011;41919;42.648;23.384;2023-04-30T11:19:24;3.05;;;2.75;;
56051;SDS011;41919;42.648;23.384;2023-04-30T11:27:23;3.70;;;3.17;;
56051;SDS011;41919;42.648;23.384;2023-04-30T11:29:49;2.67;;;2.47;;
56051;SDS011;41919;42.648;23.384;2023-04-30T11:32:17;5.72;;;3.17;;
56051;SDS011;41919;42.648;23.384;2023-04-30T11:34:44;2.40;;;2.20;;
56051;SDS011;41919;42.648;23.384;2023-04-30T11:37:14;3.63;;;2.17;;
56051;SDS011;41919;42.648;23.384;2023-04-30T11:39:44;3.05;;;2.33;;
56051;SDS011;41919;42.648;23.384;2023-04-30T11:42:14;2.38;;;2.10;;
56051;SDS011;41919;42.648;23.384;2023-04-30T11:44:43;2.30;;;2.10;;
56051;SDS011;41919;42.648;23.384;2023-04-30T11:47:13;2.22;;;2.03;;
56051;SDS011;41919;42.648;23.384;2023-04-30T11:49:42;2.80;;;2.15;;
56051;SDS011;41919;42.648;23.384;2023-04-30T11:52:07;2.00;;;1.90;;
56051;SDS011;41919;42.648;23.384;2023-04-30T11:54:36;4.68;;;3.42;;
56051;SDS011;41919;42.648;23.384;2023-04-30T11:57:03;3.10;;;2.30;;
56051;SDS011;41919;42.648;23.384;2023-04-30T11:59:30;2.55;;;2.35;;
56051;SDS011;41919;42.648;23.384;2023-04-30T12:01:56;3.72;;;2.30;;
56051;SDS011;41919;42.648;23.384;2023-04-30T12:04:22;2.38;;;2.20;;
56051;SDS011;41919;42.648;23.384;2023-04-30T12:06:48;2.30;;;2.10;;
56051;SDS011;41919;42.648;23.384;2023-04-30T12:09:14;3.30;;;2.13;;
56051;SDS011;41919;42.648;23.384;2023-04-30T12:11:39;2.83;;;2.10;;
56051;SDS011;41919;42.648;23.384;2023-04-30T12:14:06;2.05;;;1.90;;
56051;SDS011;41919;42.648;23.384;2023-04-30T12:16:50;6.68;;;2.42;;
56051;SDS011;41919;42.648;23.384;2023-04-30T12:19:20;2.63;;;1.80;;
56051;SDS011;41919;42.648;23.384;2023-04-30T12:21:49;2.13;;;1.83;;
56051;SDS011;41919;42.648;23.384;2023-04-30T12:24:15;1.60;;;1.50;;
56051;SDS011;41919;42.648;23.384;2023-04-30T12:26:42;2.20;;;1.80;;
56051;SDS011;41919;42.648;23.384;2023-04-30T12:29:09;2.13;;;2.00;;
56051;SDS011;41919;42.648;23.384;2023-04-30T12:31:38;2.70;;;2.15;;
56051;SDS011;41919;42.648;23.384;2023-04-30T12:34:05;2.60;;;1.95;;
56051;SDS011;41919;42.648;23.384;2023-04-30T12:36:31;6.75;;;2.20;;
56051;SDS011;41919;42.648;23.384;2023-04-30T12:39:02;3.67;;;2.35;;
56051;SDS011;41919;42.648;23.384;2023-04-30T12:41:33;2.58;;;2.38;;
56051;SDS011;41919;42.648;23.384;2023-04-30T12:44:16;2.50;;;2.30;;
56051;SDS011;41919;42.648;23.384;2023-04-30T12:46:42;2.70;;;2.20;;
56051;SDS011;41919;42.648;23.384;2023-04-30T12:49:07;2.88;;;2.30;;
56051;SDS011;41919;42.648;23.384;2023-04-30T12:51:35;3.00;;;2.70;;
56051;SDS011;41919;42.648;23.384;2023-04-30T12:54:01;4.35;;;2.53;;
56051;SDS011;41919;42.648;23.384;2023-04-30T12:56:26;2.40;;;2.20;;
56051;SDS011;41919;42.648;23.384;2023-04-30T12:58:52;4.53;;;2.40;;
56051;SDS011;41919;42.648;23.384;2023-04-30T13:01:20;3.78;;;2.50;;
56051;SDS011;41919;42.648;23.384;2023-04-30T13:03:49;2.58;;;2.15;;
56051;SDS011;41919;42.648;23.384;2023-04-30T13:06:16;2.90;;;2.60;;
56051;SDS011;41919;42.648;23.384;2023-04-30T13:08:42;2.65;;;2.45;;
56051;SDS011;41919;42.648;23.384;2023-04-30T13:11:08;2.53;;;1.95;;
56051;SDS011;41919;42.648;23.384;2023-04-30T13:13:33;2.65;;;2.45;;
56051;SDS011;41919;42.648;23.384;2023-04-30T13:15:59;6.35;;;4.47;;
56051;SDS011;41919;42.648;23.384;2023-04-30T13:18:24;3.72;;;2.13;;
56051;SDS011;41919;42.648;23.384;2023-04-30T13:20:50;4.88;;;2.10;;
56051;SDS011;41919;42.648;23.384;2023-04-30T13:23:16;2.38;;;2.10;;
56051;SDS011;41919;42.648;23.384;2023-04-30T13:25:42;2.80;;;2.20;;
56051;SDS011;41919;42.648;23.384;2023-04-30T13:28:07;2.92;;;2.63;;
56051;SDS011;41919;42.648;23.384;2023-04-30T13:30:33;2.70;;;2.38;;
56051;SDS011;41919;42.648;23.384;2023-04-30T13:32:59;3.38;;;3.08;;
56051;SDS011;41919;42.648;23.384;2023-04-30T13:35:25;4.25;;;3.00;;
56051;SDS011;41919;42.648;23.384;2023-04-30T13:37:51;3.45;;;2.47;;
56051;SDS011;41919;42.648;23.384;2023-04-30T13:40:17;2.95;;;2.50;;
56051;SDS011;41919;42.648;23.384;2023-04-30T13:42:44;3.05;;;2.63;;
56051;SDS011;41919;42.648;23.384;2023-04-30T13:45:11;2.55;;;2.30;;
56051;SDS011;41919;42.648;23.384;2023-04-30T13:47:37;5.00;;;2.50;;
56051;SDS011;41919;42.648;23.384;2023-04-30T13:50:03;2.78;;;2.58;;
56051;SDS011;41919;42.648;23.384;2023-04-30T13:52:29;2.25;;;1.88;;
56051;SDS011;41919;42.648;23.384;2023-04-30T13:54:55;2.78;;;2.53;;
56051;SDS011;41919;42.648;23.384;2023-04-30T13:57:21;3.10;;;2.40;;
56051;SDS011;41919;42.648;23.384;2023-04-30T13:59:47;2.50;;;2.28;;
56051;SDS011;41919;42.648;23.384;2023-04-30T14:02:12;2.95;;;2.25;;
56051;SDS011;41919;42.648;23.384;2023-04-30T14:04:38;2.20;;;2.00;;
56051;SDS011;41919;42.648;23.384;2023-04-30T14:07:03;3.45;;;2.10;;
56051;SDS011;41919;42.648;23.384;2023-04-30T14:12:07;2.25;;;2.05;;
56051;SDS011;41919;42.648;23.384;2023-04-30T14:14:32;2.58;;;2.38;;
56051;SDS011;41919;42.648;23.384;2023-04-30T14:16:58;4.25;;;2.10;;
56051;SDS011;41919;42.648;23.384;2023-04-30T14:19:23;4.68;;;2.33;;
56051;SDS011;41919;42.648;23.384;2023-04-30T14:21:48;2.38;;;2.10;;
56051;SDS011;41919;42.648;23.384;2023-04-30T14:24:14;2.90;;;2.10;;
56051;SDS011;41919;42.648;23.384;2023-04-30T14:26:43;2.40;;;2.20;;
56051;SDS011;41919;42.648;23.384;2023-04-30T14:29:09;2.42;;;2.28;;
56051;SDS011;41919;42.648;23.384;2023-04-30T14:31:35;3.20;;;2.30;;
56051;SDS011;41919;42.648;23.384;2023-04-30T14:34:00;2.35;;;2.15;;
56051;SDS011;41919;42.648;23.384;2023-04-30T14:36:26;3.53;;;2.35;;
56051;SDS011;41919;42.648;23.384;2023-04-30T14:38:52;5.10;;;2.28;;
56051;SDS011;41919;42.648;23.384;2023-04-30T14:41:18;2.20;;;2.00;;
56051;SDS011;41919;42.648;23.384;2023-04-30T14:43:43;2.65;;;2.22;;
56051;SDS011;41919;42.648;23.384;2023-04-30T14:46:09;2.92;;;2.63;;
56051;SDS011;41919;42.648;23.384;2023-04-30T14:48:35;2.60;;;2.40;;
56051;SDS011;41919;42.648;23.384;2023-04-30T14:51:01;4.03;;;2.22;;
56051;SDS011;41919;42.648;23.384;2023-04-30T14:53:27;3.33;;;2.40;;
56051;SDS011;41919;42.648;23.384;2023-04-30T14:55:52;2.55;;;2.35;;
56051;SDS011;41919;42.648;23.384;2023-04-30T14:58:18;3.40;;;2.20;;
56051;SDS011;41919;42.648;23.384;2023-04-30T15:00:44;2.97;;;2.40;;
56051;SDS011;41919;42.648;23.384;2023-04-30T15:03:11;2.90;;;1.83;;
56051;SDS011;41919;42.648;23.384;2023-04-30T15:05:36;2.15;;;1.95;;
56051;SDS011;41919;42.648;23.384;2023-04-30T15:08:01;2.47;;;2.20;;